createdAt,value
2019-03-28T00:00:30.842Z,56.28
2019-03-28T00:03:05.117Z,55.43
2019-03-28T00:05:36.335Z,59.35
2019-03-28T00:08:08.537Z,55.75
2019-03-28T00:10:41.068Z,51.95
2019-03-28T00:13:13.646Z,51.73
2019-03-28T00:15:45.962Z,52.90
2019-03-28T00:18:17.155Z,51.98
2019-03-28T00:20:49.526Z,50.78
2019-03-28T00:23:27.563Z,51.02
2019-03-28T00:25:59.661Z,48.83
2019-03-28T00:28:31.046Z,49.58
2019-03-28T00:31:03.308Z,48.75
2019-03-28T00:33:35.598Z,50.40
2019-03-28T00:36:08.114Z,50.85
2019-03-28T00:38:40.808Z,49.67
2019-03-28T00:41:12.032Z,47.88
2019-03-28T00:43:44.718Z,47.73
2019-03-28T00:46:19.467Z,49.55
2019-03-28T00:48:50.847Z,50.15
2019-03-28T00:51:22.110Z,51.88
2019-03-28T00:53:54.435Z,46.95
2019-03-28T00:56:25.475Z,50.50
2019-03-28T00:58:57.585Z,47.65
2019-03-28T01:01:29.001Z,47.60
2019-03-28T01:04:02.269Z,47.88
2019-03-28T01:06:34.676Z,42.70
2019-03-28T01:09:08.467Z,43.83
2019-03-28T01:11:40.795Z,44.03
2019-03-28T01:14:12.904Z,42.45
2019-03-28T01:22:29.932Z,40.70
2019-03-28T01:25:02.939Z,28.98
2019-03-28T01:27:38.580Z,37.73
2019-03-28T01:30:11.857Z,41.65
2019-03-28T01:32:45.049Z,37.53
2019-03-28T01:35:21.334Z,39.92
2019-03-28T01:37:54.475Z,36.13
2019-03-28T01:40:26.198Z,35.65
2019-03-28T01:42:57.906Z,34.58
2019-03-28T01:45:29.864Z,34.43
2019-03-28T01:48:02.995Z,32.90
2019-03-28T01:50:36.152Z,34.85
2019-03-28T01:53:08.894Z,32.75
2019-03-28T01:55:41.863Z,33.92
2019-03-28T01:58:17.206Z,35.63
2019-03-28T02:00:49.525Z,33.48
2019-03-28T02:03:21.655Z,32.55
2019-03-28T02:05:54.075Z,32.10
2019-03-28T02:08:26.255Z,33.38
2019-03-28T02:11:00.633Z,33.88
2019-03-28T02:13:31.921Z,30.90
2019-03-28T02:16:18.011Z,30.68
2019-03-28T02:18:51.135Z,27.95
2019-03-28T02:21:23.487Z,26.87
2019-03-28T02:23:56.031Z,30.97
2019-03-28T02:26:30.113Z,28.05
2019-03-28T02:29:04.297Z,30.37
2019-03-28T02:31:36.695Z,32.50
2019-03-28T02:34:10.873Z,30.62
2019-03-28T02:36:42.023Z,30.05
2019-03-28T02:39:13.547Z,33.95
2019-03-28T02:41:45.965Z,33.55
2019-03-28T02:44:21.223Z,29.12
2019-03-28T02:46:55.260Z,30.57
2019-03-28T02:49:27.934Z,29.30
2019-03-28T02:52:02.344Z,34.80
2019-03-28T02:54:36.470Z,30.40
2019-03-28T02:57:10.514Z,30.97
2019-03-28T02:59:42.983Z,33.60
2019-03-28T03:02:20.137Z,28.62
2019-03-28T03:04:52.490Z,28.00
2019-03-28T03:07:30.637Z,26.33
2019-03-28T03:10:02.115Z,29.18
2019-03-28T03:12:34.851Z,28.40
2019-03-28T03:15:10.636Z,28.55
2019-03-28T03:17:48.392Z,26.77
2019-03-28T03:20:21.023Z,26.82
2019-03-28T03:22:52.084Z,28.70
2019-03-28T03:25:26.294Z,28.20
2019-03-28T03:27:59.435Z,27.05
2019-03-28T03:30:33.988Z,26.90
2019-03-28T03:33:09.684Z,28.73
2019-03-28T03:35:42.007Z,27.67
2019-03-28T03:38:14.730Z,27.95
2019-03-28T03:40:47.047Z,29.60
2019-03-28T03:43:18.518Z,28.47
2019-03-28T03:45:51.609Z,30.27
2019-03-28T03:48:22.896Z,27.32
2019-03-28T03:50:54.028Z,27.00
2019-03-28T03:53:28.151Z,27.55
2019-03-28T03:56:02.315Z,28.10
2019-03-28T03:58:39.023Z,25.57
2019-03-28T04:01:10.300Z,27.30
2019-03-28T04:03:44.147Z,27.05
2019-03-28T04:06:15.481Z,25.82
2019-03-28T04:08:47.609Z,27.07
2019-03-28T04:11:23.009Z,28.80
2019-03-28T04:13:54.352Z,27.25
2019-03-28T04:16:29.429Z,27.85
2019-03-28T04:19:03.416Z,27.82
2019-03-28T04:21:35.735Z,28.23
2019-03-28T04:24:07.053Z,28.65
2019-03-28T04:26:39.395Z,27.62
2019-03-28T04:29:12.003Z,27.85
2019-03-28T04:31:44.601Z,29.27
2019-03-28T04:34:19.092Z,27.35
2019-03-28T04:36:51.670Z,37.98
2019-03-28T04:39:23.854Z,27.93
2019-03-28T04:41:57.968Z,29.57
2019-03-28T04:44:29.264Z,31.23
2019-03-28T04:47:01.463Z,28.55
2019-03-28T04:49:32.691Z,26.23
2019-03-28T04:52:05.096Z,28.77
2019-03-28T04:54:37.531Z,26.25
2019-03-28T04:57:09.715Z,26.97
2019-03-28T04:59:42.073Z,26.65
2019-03-28T05:02:14.409Z,28.02
2019-03-28T05:04:46.795Z,27.48
2019-03-28T05:07:19.170Z,27.07
2019-03-28T05:09:53.965Z,27.73
2019-03-28T05:12:26.149Z,26.82
2019-03-28T05:15:00.867Z,25.80
2019-03-28T05:17:32.137Z,27.37
2019-03-28T05:20:04.918Z,26.37
2019-03-28T05:22:39.233Z,29.63
2019-03-28T05:25:10.873Z,26.87
2019-03-28T05:27:42.147Z,26.05
2019-03-28T05:30:14.391Z,25.72
2019-03-28T05:32:48.711Z,26.57
2019-03-28T05:35:21.003Z,26.40
2019-03-28T05:37:53.098Z,27.45
2019-03-28T05:40:25.340Z,26.68
2019-03-28T05:42:58.040Z,26.25
2019-03-28T05:45:30.634Z,26.90
2019-03-28T05:48:03.001Z,28.95
2019-03-28T05:50:34.375Z,30.20
2019-03-28T05:53:08.260Z,26.85
2019-03-28T05:55:40.820Z,27.15
2019-03-28T05:58:14.625Z,26.57
2019-03-28T06:00:51.084Z,25.68
2019-03-28T06:03:20.583Z,27.70
2019-03-28T06:05:52.692Z,26.48
2019-03-28T06:08:25.135Z,26.48
2019-03-28T06:10:57.565Z,27.67
2019-03-28T06:13:28.912Z,28.27
2019-03-28T06:16:01.288Z,26.52
2019-03-28T06:18:36.433Z,27.30
2019-03-28T06:21:07.560Z,27.17
2019-03-28T06:23:39.403Z,25.23
2019-03-28T06:26:15.566Z,26.95
2019-03-28T06:28:46.891Z,26.40
2019-03-28T06:31:19.612Z,26.15
2019-03-28T06:33:51.614Z,27.42
2019-03-28T06:36:26.550Z,26.82
2019-03-28T06:38:57.262Z,26.35
2019-03-28T06:41:29.698Z,25.10
2019-03-28T06:44:04.520Z,25.50
2019-03-28T06:46:38.904Z,25.57
2019-03-28T06:49:10.139Z,26.48
2019-03-28T06:51:42.263Z,28.10
2019-03-28T06:54:13.504Z,27.32
2019-03-28T06:56:47.356Z,25.97
2019-03-28T06:59:20.328Z,25.45
2019-03-28T07:01:52.463Z,29.75
2019-03-28T07:04:24.859Z,26.75
2019-03-28T07:06:55.987Z,25.82
2019-03-28T07:09:27.373Z,27.48
2019-03-28T07:12:00.620Z,26.77
2019-03-28T07:14:33.369Z,27.27
2019-03-28T07:17:05.692Z,34.08
2019-03-28T07:19:37.066Z,26.40
2019-03-28T07:22:10.259Z,26.77
2019-03-28T07:24:42.895Z,29.72
2019-03-28T07:27:15.599Z,26.37
2019-03-28T07:29:51.049Z,26.52
2019-03-28T07:32:20.297Z,25.32
2019-03-28T07:34:52.913Z,25.90
2019-03-28T07:37:28.114Z,24.75
2019-03-28T07:39:59.475Z,26.02
2019-03-28T07:42:33.457Z,25.62
2019-03-28T07:45:06.444Z,24.72
2019-03-28T07:47:39.095Z,25.32
2019-03-28T07:50:11.873Z,25.15
2019-03-28T07:52:46.132Z,26.75
2019-03-28T07:55:18.475Z,25.50
2019-03-28T07:57:50.994Z,26.35
2019-03-28T08:00:23.732Z,24.92
2019-03-28T08:02:58.457Z,24.60
2019-03-28T08:05:30.585Z,30.12
2019-03-28T08:08:01.819Z,27.65
2019-03-28T08:10:33.034Z,27.60
2019-03-28T08:13:05.404Z,27.58
2019-03-28T08:15:38.037Z,29.70
2019-03-28T08:18:12.554Z,30.37
2019-03-28T08:20:44.313Z,32.73
2019-03-28T08:23:20.965Z,30.20
2019-03-28T08:25:58.242Z,34.08
2019-03-28T08:28:31.649Z,36.25
2019-03-28T08:31:05.063Z,34.85
2019-03-28T08:33:37.903Z,34.03
2019-03-28T08:36:10.904Z,32.67
2019-03-28T08:38:46.707Z,33.70
2019-03-28T08:41:22.653Z,31.37
2019-03-28T08:43:55.895Z,31.00
2019-03-28T08:46:27.725Z,31.50
2019-03-28T08:49:00.795Z,28.80
2019-03-28T08:51:32.690Z,31.62
2019-03-28T08:54:05.650Z,24.55
2019-03-28T08:56:37.360Z,21.23
2019-03-28T08:59:10.483Z,19.87
2019-03-28T09:01:43.499Z,14.35
2019-03-28T09:04:15.168Z,11.93
2019-03-28T09:06:48.296Z,11.63
2019-03-28T09:09:21.579Z,15.40
2019-03-28T09:20:27.636Z,13.13
2019-03-28T09:22:59.089Z,20.08
2019-03-28T09:25:34.454Z,24.07
2019-03-28T09:28:05.984Z,26.70
2019-03-28T09:30:48.627Z,22.20
2019-03-28T09:33:16.004Z,20.45
2019-03-28T09:35:48.900Z,14.75
2019-03-28T09:38:23.871Z,15.95
2019-03-28T09:41:00.196Z,23.55
2019-03-28T09:43:35.995Z,19.37
2019-03-28T09:46:11.449Z,13.50
2019-03-28T09:48:43.226Z,14.53
2019-03-28T09:51:15.988Z,11.55
2019-03-28T09:53:48.861Z,13.25
2019-03-28T09:56:22.336Z,13.85
2019-03-28T09:58:55.159Z,18.50
2019-03-28T10:01:27.896Z,16.02
2019-03-28T10:04:01.001Z,15.98
2019-03-28T10:06:33.903Z,15.60
2019-03-28T10:09:06.714Z,13.38
2019-03-28T10:11:39.689Z,15.60
2019-03-28T10:14:12.724Z,13.03
2019-03-28T10:16:46.144Z,13.18
2019-03-28T10:19:21.425Z,14.38
2019-03-28T10:21:54.715Z,13.35
2019-03-28T10:24:31.655Z,10.98
2019-03-28T10:27:03.537Z,13.00
2019-03-28T10:29:38.826Z,10.55
2019-03-28T10:32:12.872Z,11.28
2019-03-28T10:34:47.557Z,10.88
2019-03-28T10:37:19.240Z,11.22
2019-03-28T10:39:52.119Z,11.55
2019-03-28T10:42:24.879Z,13.68
2019-03-28T10:45:00.532Z,13.00
2019-03-28T10:47:35.057Z,13.58
2019-03-28T10:50:11.419Z,12.47
2019-03-28T10:52:53.868Z,13.25
2019-03-28T10:55:26.676Z,14.80
2019-03-28T10:57:59.573Z,12.07
2019-03-28T11:00:32.803Z,14.00
2019-03-28T11:03:04.788Z,20.40
2019-03-28T11:05:37.762Z,18.65
2019-03-28T11:08:10.507Z,17.52
2019-03-28T11:10:43.301Z,14.18
2019-03-28T11:13:15.177Z,17.12
2019-03-28T11:15:52.050Z,19.55
2019-03-28T11:18:25.090Z,14.58
2019-03-28T11:21:00.133Z,17.02
2019-03-28T11:23:32.850Z,18.17
2019-03-28T11:26:06.257Z,16.50
2019-03-28T11:28:39.365Z,17.07
2019-03-28T11:31:11.072Z,19.73
2019-03-28T11:33:42.821Z,21.00
2019-03-28T11:36:18.458Z,20.27
2019-03-28T11:38:51.478Z,20.88
2019-03-28T11:41:24.318Z,19.12
2019-03-28T11:44:00.774Z,19.80
2019-03-28T11:46:33.642Z,22.02
2019-03-28T11:49:21.940Z,22.32
2019-03-28T11:51:54.185Z,21.40
2019-03-28T11:54:25.829Z,20.68
2019-03-28T11:56:59.274Z,20.97
2019-03-28T11:59:35.621Z,22.17
2019-03-28T12:02:19.058Z,21.07
2019-03-28T12:04:43.471Z,21.33
2019-03-28T12:07:16.531Z,21.73
2019-03-28T12:09:49.571Z,25.50
2019-03-28T12:12:22.214Z,21.57
2019-03-28T12:14:57.987Z,24.15
2019-03-28T12:17:30.971Z,28.60
2019-03-28T12:20:02.552Z,28.10
2019-03-28T12:22:38.002Z,21.90
2019-03-28T12:25:11.081Z,22.85
2019-03-28T12:27:50.195Z,21.68
2019-03-28T12:30:26.798Z,24.18
2019-03-28T12:33:00.256Z,19.07
2019-03-28T12:35:36.229Z,22.90
2019-03-28T12:38:15.181Z,25.92
2019-03-28T12:40:51.197Z,22.22
2019-03-28T12:43:22.853Z,23.02
2019-03-28T12:45:58.517Z,23.75
2019-03-28T12:48:31.622Z,25.02
2019-03-28T12:51:12.009Z,22.10
2019-03-28T12:53:53.526Z,23.30
2019-03-28T12:56:45.387Z,24.50
2019-03-28T12:59:21.005Z,21.45
2019-03-28T13:02:09.646Z,26.42
2019-03-28T13:04:41.268Z,20.57
2019-03-28T13:07:17.330Z,26.05
2019-03-28T13:09:48.984Z,23.90
2019-03-28T13:12:21.774Z,26.33
2019-03-28T13:14:59.469Z,23.62
2019-03-28T13:17:32.595Z,24.95
2019-03-28T13:20:07.860Z,24.87
2019-03-28T13:22:42.984Z,24.77
2019-03-28T13:25:18.687Z,28.17
2019-03-28T13:27:51.899Z,27.98
2019-03-28T13:30:24.862Z,24.87
2019-03-28T13:32:57.845Z,25.32
2019-03-28T13:35:35.230Z,27.50
2019-03-28T13:38:08.720Z,28.25
2019-03-28T13:40:40.293Z,27.65
2019-03-28T13:43:11.843Z,24.70
2019-03-28T13:45:47.260Z,23.32
2019-03-28T13:50:54.764Z,23.25
2019-03-28T13:53:38.873Z,33.73
2019-03-28T13:56:04.500Z,30.48
2019-03-28T13:58:38.192Z,27.17
2019-03-28T14:04:01.826Z,30.00
2019-03-28T14:06:35.177Z,27.10
2019-03-28T14:09:09.358Z,26.55
2019-03-28T14:11:42.746Z,33.30
2019-03-28T14:14:15.402Z,30.65
2019-03-28T14:16:48.315Z,29.23
2019-03-28T14:19:23.504Z,31.17
2019-03-28T14:21:57.892Z,27.30
2019-03-28T14:24:30.522Z,29.63
2019-03-28T14:27:04.423Z,32.65
2019-03-28T14:32:26.100Z,33.55
2019-03-28T14:37:48.857Z,36.28
2019-03-28T14:40:20.486Z,34.35
2019-03-28T14:42:53.506Z,35.75
2019-03-28T14:45:26.223Z,33.33
2019-03-28T14:48:02.491Z,36.42
2019-03-28T14:50:40.451Z,33.58
2019-03-28T14:56:01.975Z,44.08
2019-03-28T14:58:34.984Z,38.08
2019-03-28T15:01:11.959Z,39.27
2019-03-28T15:03:43.769Z,36.42
2019-03-28T15:06:16.664Z,39.00
2019-03-28T15:11:37.932Z,42.10
2019-03-28T15:16:57.512Z,39.60
2019-03-28T15:25:06.644Z,37.90
2019-03-28T15:27:39.467Z,39.63
2019-03-28T15:30:12.365Z,39.92
2019-03-28T15:32:43.830Z,39.75
2019-03-28T15:35:17.053Z,40.40
2019-03-28T15:37:50.021Z,44.67
2019-03-28T15:40:27.139Z,43.05
2019-03-28T15:43:03.778Z,39.27
2019-03-28T15:45:37.192Z,39.30
2019-03-28T15:48:09.881Z,40.05
2019-03-28T15:50:47.638Z,38.30
2019-03-28T15:53:19.335Z,37.73
2019-03-28T15:55:51.176Z,37.65
2019-03-28T15:58:26.900Z,38.35
2019-03-28T16:03:52.886Z,37.58
2019-03-28T16:06:22.440Z,37.13
2019-03-28T16:08:55.568Z,39.83
2019-03-28T16:11:28.565Z,39.73
2019-03-28T16:14:03.794Z,39.88
2019-03-28T16:16:35.566Z,41.42
2019-03-28T16:19:08.901Z,41.20
2019-03-28T16:21:40.690Z,39.10
2019-03-28T16:24:15.928Z,39.70
2019-03-28T16:26:49.070Z,43.70
2019-03-28T16:29:20.903Z,38.10
2019-03-28T16:31:53.995Z,39.70
2019-03-28T16:34:25.533Z,36.42
2019-03-28T16:36:58.420Z,43.45
2019-03-28T16:39:31.172Z,44.53
2019-03-28T16:42:08.254Z,41.25
2019-03-28T16:44:39.853Z,46.08
2019-03-28T16:47:15.210Z,41.08
2019-03-28T16:52:22.304Z,50.50
2019-03-28T16:54:57.636Z,43.70
2019-03-28T16:57:30.619Z,48.20
2019-03-28T17:00:03.542Z,45.17
2019-03-28T17:02:34.993Z,49.85
2019-03-28T17:05:09.164Z,45.67
2019-03-28T17:07:42.269Z,43.48
2019-03-28T17:10:20.136Z,48.75
2019-03-28T17:12:51.610Z,42.45
2019-03-28T17:15:25.786Z,41.88
2019-03-28T17:17:58.564Z,40.05
2019-03-28T17:20:31.520Z,44.88
2019-03-28T17:23:04.787Z,45.50
2019-03-28T17:25:37.649Z,44.00
2019-03-28T17:28:10.600Z,41.65
2019-03-28T17:30:42.366Z,40.35
2019-03-28T17:33:17.799Z,42.27
2019-03-28T17:35:50.212Z,42.78
2019-03-28T17:38:25.963Z,41.70
2019-03-28T17:40:57.704Z,41.92
2019-03-28T17:43:30.469Z,39.73
2019-03-28T17:46:03.679Z,39.88
2019-03-28T17:48:36.655Z,38.45
2019-03-28T17:51:09.926Z,39.73
2019-03-28T17:53:41.668Z,35.73
2019-03-28T17:56:14.606Z,34.20
2019-03-28T17:58:47.695Z,34.33
2019-03-28T18:01:21.239Z,33.83
2019-03-28T18:03:56.066Z,35.15
2019-03-28T18:06:27.109Z,34.98
2019-03-28T18:09:00.235Z,31.82
2019-03-28T18:11:33.312Z,36.48
2019-03-28T18:14:08.318Z,35.03
2019-03-28T18:16:41.243Z,31.57
2019-03-28T18:19:14.995Z,32.33
2019-03-28T18:21:47.961Z,34.23
2019-03-28T18:24:24.209Z,32.38
2019-03-28T18:26:56.039Z,34.70
2019-03-28T18:29:27.713Z,35.28
2019-03-28T18:32:00.711Z,34.30
2019-03-28T18:34:32.340Z,35.03
2019-03-28T18:37:05.010Z,32.70
2019-03-28T18:39:37.701Z,31.85
2019-03-28T18:42:09.461Z,33.25
2019-03-28T18:44:45.099Z,32.33
2019-03-28T18:47:21.998Z,33.20
2019-03-28T18:49:54.976Z,31.05
2019-03-28T18:52:27.880Z,31.07
2019-03-28T18:55:03.608Z,30.32
2019-03-28T18:57:40.109Z,30.75
2019-03-28T19:00:11.845Z,31.00
2019-03-28T19:02:44.645Z,31.20
2019-03-28T19:05:20.405Z,30.82
2019-03-28T19:07:53.410Z,32.55
2019-03-28T19:10:26.354Z,30.37
2019-03-28T19:12:57.992Z,30.25
2019-03-28T19:15:30.436Z,30.82
2019-03-28T19:18:02.349Z,32.30
2019-03-28T19:20:33.887Z,33.60
2019-03-28T19:23:07.408Z,32.50
2019-03-28T19:25:39.010Z,32.80
2019-03-28T19:28:12.133Z,35.13
2019-03-28T19:30:46.205Z,33.92
2019-03-28T19:33:24.330Z,31.37
2019-03-28T19:36:01.359Z,34.78
2019-03-28T19:38:33.068Z,31.73
2019-03-28T19:41:09.962Z,31.52
2019-03-28T19:43:43.133Z,33.63
2019-03-28T19:46:14.883Z,29.87
2019-03-28T19:48:48.266Z,32.63
2019-03-28T19:51:21.130Z,32.05
2019-03-28T19:53:52.797Z,29.63
2019-03-28T19:56:24.541Z,32.75
2019-03-28T19:58:57.459Z,32.38
2019-03-28T20:01:30.581Z,34.60
2019-03-28T20:04:03.744Z,33.23
2019-03-28T20:06:36.624Z,33.30
2019-03-28T20:09:16.110Z,36.85
2019-03-28T20:11:44.089Z,34.75
2019-03-28T20:14:17.737Z,36.30
2019-03-28T20:16:51.792Z,35.88
2019-03-28T20:19:23.312Z,39.15
2019-03-28T20:21:59.390Z,37.53
2019-03-28T20:24:29.451Z,37.30
2019-03-28T20:27:02.479Z,37.30
2019-03-28T20:29:35.032Z,37.60
2019-03-28T20:32:08.232Z,39.40
2019-03-28T20:34:40.801Z,38.92
2019-03-28T20:37:13.678Z,37.88
2019-03-28T20:39:45.225Z,36.15
2019-03-28T20:42:18.413Z,40.33
2019-03-28T20:44:51.309Z,40.52
2019-03-28T20:47:24.769Z,39.10
2019-03-28T20:49:57.856Z,42.17
2019-03-28T20:52:29.316Z,41.98
2019-03-28T20:55:00.981Z,43.98
2019-03-28T20:57:32.508Z,42.25
2019-03-28T21:00:08.279Z,42.73
2019-03-28T21:02:39.489Z,49.25
2019-03-28T21:05:14.325Z,45.98
2019-03-28T21:08:05.972Z,41.00
2019-03-28T21:10:39.141Z,39.53
2019-03-28T21:13:12.322Z,42.03
2019-03-28T21:15:47.304Z,39.05
2019-03-28T21:18:20.806Z,43.02
2019-03-28T21:20:52.355Z,44.50
2019-03-28T21:23:24.114Z,40.43
2019-03-28T21:25:57.204Z,42.95
2019-03-28T21:28:30.242Z,42.73
2019-03-28T21:31:01.894Z,45.40
2019-03-28T21:33:33.422Z,45.58
2019-03-28T21:36:08.500Z,50.38
2019-03-28T21:38:40.043Z,43.92
2019-03-28T21:41:11.758Z,47.35
2019-03-28T21:43:44.518Z,43.60
2019-03-28T21:46:16.168Z,46.42
2019-03-28T21:48:49.218Z,50.35
2019-03-28T21:51:22.463Z,46.25
2019-03-28T21:53:54.000Z,46.23
2019-03-28T21:56:25.545Z,44.42
2019-03-28T21:58:57.207Z,43.83
2019-03-28T22:01:32.169Z,41.92
2019-03-28T22:04:10.279Z,41.90
2019-03-28T22:06:43.458Z,44.38
2019-03-28T22:09:16.172Z,43.30
2019-03-28T22:11:49.037Z,46.98
2019-03-28T22:14:20.671Z,47.50
2019-03-28T22:16:52.322Z,46.95
2019-03-28T22:19:25.893Z,44.63
2019-03-28T22:21:59.449Z,45.48
2019-03-28T22:24:30.985Z,44.03
2019-03-28T22:27:03.722Z,45.43
2019-03-28T22:29:36.486Z,46.53
2019-03-28T22:32:11.562Z,48.30
2019-03-28T22:34:43.305Z,47.38
2019-03-28T22:37:16.066Z,51.33
2019-03-28T22:39:47.725Z,48.92
2019-03-28T22:42:23.897Z,54.05
2019-03-28T22:44:59.479Z,60.85
2019-03-28T22:50:05.257Z,65.20
2019-03-28T22:52:38.566Z,67.90
2019-03-28T22:55:14.692Z,66.95
2019-03-28T22:57:47.733Z,70.90
2019-03-28T23:00:22.921Z,185.97
2019-03-28T23:02:54.873Z,91.97
2019-03-28T23:05:28.709Z,118.17
2019-03-28T23:08:01.528Z,68.05
2019-03-28T23:10:34.507Z,62.60
2019-03-28T23:13:07.804Z,59.83
2019-03-28T23:15:39.418Z,56.88
2019-03-28T23:18:14.641Z,59.80
2019-03-28T23:20:47.507Z,57.85
2019-03-28T23:23:20.376Z,56.10
2019-03-28T23:25:52.144Z,65.72
2019-03-28T23:28:25.066Z,93.40
2019-03-28T23:30:57.931Z,69.05
2019-03-28T23:33:31.446Z,58.75
2019-03-28T23:36:07.248Z,61.28
2019-03-28T23:38:40.433Z,56.85
2019-03-28T23:41:13.447Z,65.47
2019-03-28T23:43:45.164Z,62.17
2019-03-28T23:46:16.829Z,62.67
2019-03-28T23:48:51.160Z,59.20
2019-03-28T23:51:24.885Z,59.75
2019-03-28T23:54:00.922Z,65.12
2019-03-28T23:56:32.756Z,63.50
2019-03-28T23:59:10.519Z,85.42
